createdAt,value
2019-02-09T00:00:25.546Z,52.70
2019-02-09T00:03:13.786Z,52.86
2019-02-09T00:06:01.952Z,52.62
2019-02-09T00:08:50.350Z,52.30
2019-02-09T00:11:38.357Z,52.63
2019-02-09T00:14:26.164Z,52.21
2019-02-09T00:17:13.789Z,51.83
2019-02-09T00:20:01.784Z,51.90
2019-02-09T00:22:49.771Z,51.62
2019-02-09T00:25:37.994Z,51.50
2019-02-09T00:28:26.182Z,51.20
2019-02-09T00:31:14.304Z,50.98
2019-02-09T00:34:02.132Z,50.16
2019-02-09T00:36:50.424Z,51.12
2019-02-09T00:39:38.630Z,51.06
2019-02-09T00:42:26.908Z,51.25
2019-02-09T00:45:16.037Z,50.10
2019-02-09T00:48:04.256Z,48.81
2019-02-09T00:50:52.187Z,47.85
2019-02-09T00:53:40.247Z,46.79
2019-02-09T00:56:28.221Z,46.44
2019-02-09T00:59:16.219Z,46.32
2019-02-09T01:02:03.993Z,46.47
2019-02-09T01:04:52.819Z,46.27
2019-02-09T01:07:41.119Z,45.41
2019-02-09T01:10:30.834Z,45.70
2019-02-09T01:13:18.685Z,45.38
2019-02-09T01:16:06.718Z,45.52
2019-02-09T01:18:54.899Z,45.18
2019-02-09T01:21:42.670Z,44.91
2019-02-09T01:24:30.542Z,44.62
2019-02-09T01:27:18.409Z,44.70
2019-02-09T01:30:11.279Z,44.79
2019-02-09T01:32:59.524Z,46.01
2019-02-09T01:35:46.958Z,49.62
2019-02-09T01:38:34.742Z,48.98
2019-02-09T01:41:22.555Z,51.37
2019-02-09T01:44:10.583Z,52.14
2019-02-09T01:46:58.605Z,52.92
2019-02-09T01:49:46.821Z,52.53
2019-02-09T01:52:34.729Z,53.47
2019-02-09T01:55:22.653Z,53.63
2019-02-09T01:58:10.808Z,55.06
2019-02-09T02:00:58.677Z,55.25
2019-02-09T02:03:46.923Z,55.70
2019-02-09T02:06:35.045Z,56.43
2019-02-09T02:09:23.335Z,55.93
2019-02-09T02:12:11.252Z,56.25
2019-02-09T02:14:58.873Z,57.19
2019-02-09T02:17:46.934Z,58.37
2019-02-09T02:20:34.854Z,58.44
2019-02-09T02:23:22.620Z,58.65
2019-02-09T02:26:10.910Z,57.66
2019-02-09T02:28:58.793Z,56.27
2019-02-09T02:31:47.547Z,56.97
2019-02-09T02:34:34.905Z,57.18
2019-02-09T02:37:22.865Z,57.45
2019-02-09T02:40:11.894Z,57.15
2019-02-09T02:42:59.924Z,56.89
2019-02-09T02:45:47.659Z,56.94
2019-02-09T02:48:35.344Z,56.72
2019-02-09T02:51:23.418Z,57.26
2019-02-09T02:54:11.456Z,56.25
2019-02-09T02:56:59.674Z,56.87
2019-02-09T02:59:47.903Z,56.28
2019-02-09T03:02:35.749Z,57.04
2019-02-09T03:05:24.543Z,57.58
2019-02-09T03:08:12.296Z,57.57
2019-02-09T03:11:00.215Z,58.31
2019-02-09T03:13:48.106Z,58.00
2019-02-09T03:16:36.156Z,58.44
2019-02-09T03:19:24.248Z,59.07
2019-02-09T03:22:12.214Z,58.48
2019-02-09T03:24:59.987Z,56.01
2019-02-09T03:27:48.415Z,56.61
2019-02-09T03:30:47.219Z,54.62
2019-02-09T03:33:25.860Z,55.05
2019-02-09T03:36:13.721Z,50.98
2019-02-09T03:39:01.623Z,51.00
2019-02-09T03:41:49.482Z,51.31
2019-02-09T03:44:37.562Z,49.02
2019-02-09T03:47:25.426Z,48.12
2019-02-09T03:50:13.928Z,46.43
2019-02-09T03:53:02.546Z,46.65
2019-02-09T03:55:50.419Z,46.07
2019-02-09T03:58:38.454Z,46.13
2019-02-09T04:01:26.443Z,45.59
2019-02-09T04:04:14.365Z,45.49
2019-02-09T04:07:02.346Z,45.27
2019-02-09T04:09:50.364Z,44.71
2019-02-09T04:12:38.622Z,44.73
2019-02-09T04:15:26.831Z,44.51
2019-02-09T04:18:15.128Z,44.05
2019-02-09T04:21:03.089Z,43.83
2019-02-09T04:23:51.305Z,44.31
2019-02-09T04:26:39.390Z,44.04
2019-02-09T04:29:27.252Z,44.16
2019-02-09T04:32:15.308Z,43.92
2019-02-09T04:35:03.082Z,44.16
2019-02-09T04:37:51.049Z,44.73
2019-02-09T04:40:39.307Z,44.43
2019-02-09T04:43:27.055Z,44.70
2019-02-09T04:46:15.081Z,44.77
2019-02-09T04:49:03.136Z,44.93
2019-02-09T04:51:50.980Z,45.33
2019-02-09T04:54:39.107Z,45.94
2019-02-09T04:57:26.982Z,45.86
2019-02-09T05:00:18.507Z,46.01
2019-02-09T05:03:06.744Z,46.21
2019-02-09T05:05:54.772Z,46.46
2019-02-09T05:08:44.001Z,47.26
2019-02-09T05:11:32.147Z,47.30
2019-02-09T05:14:20.381Z,47.35
2019-02-09T05:17:08.367Z,47.63
2019-02-09T05:19:56.641Z,47.99
2019-02-09T05:22:44.710Z,47.82
2019-02-09T05:25:32.562Z,47.97
2019-02-09T05:28:20.735Z,47.91
2019-02-09T05:31:08.572Z,48.02
2019-02-09T05:33:56.377Z,48.11
2019-02-09T05:36:44.591Z,48.00
2019-02-09T05:39:33.782Z,48.52
2019-02-09T05:42:21.706Z,48.53
2019-02-09T05:45:11.957Z,48.40
2019-02-09T05:48:00.154Z,48.69
2019-02-09T05:50:48.313Z,49.11
2019-02-09T05:53:36.260Z,49.20
2019-02-09T05:56:24.231Z,49.61
2019-02-09T05:59:12.187Z,49.43
2019-02-09T06:02:00.216Z,50.10
2019-02-09T06:04:48.424Z,50.07
2019-02-09T06:07:36.594Z,50.63
2019-02-09T06:10:24.800Z,50.67
2019-02-09T06:13:12.902Z,51.05
2019-02-09T06:16:01.207Z,50.91
2019-02-09T06:18:48.853Z,51.30
2019-02-09T06:21:36.400Z,51.09
2019-02-09T06:24:24.569Z,51.07
2019-02-09T06:27:12.819Z,51.25
2019-02-09T06:30:01.165Z,51.27
2019-02-09T06:32:49.382Z,51.21
2019-02-09T06:35:37.594Z,51.45
2019-02-09T06:38:27.095Z,51.29
2019-02-09T06:41:15.233Z,51.33
2019-02-09T06:44:02.936Z,51.30
2019-02-09T06:46:50.687Z,50.96
2019-02-09T06:49:38.847Z,51.27
2019-02-09T06:52:27.033Z,50.92
2019-02-09T06:55:15.600Z,51.12
2019-02-09T06:58:03.759Z,51.02
2019-02-09T07:00:51.972Z,51.41
2019-02-09T07:03:40.285Z,51.02
2019-02-09T07:06:28.470Z,50.91
2019-02-09T07:09:16.429Z,51.13
2019-02-09T07:12:04.598Z,51.10
2019-02-09T07:14:52.684Z,51.38
2019-02-09T07:17:40.658Z,51.37
2019-02-09T07:20:28.714Z,51.39
2019-02-09T07:23:16.631Z,51.60
2019-02-09T07:26:05.266Z,51.53
2019-02-09T07:28:53.149Z,51.32
2019-02-09T07:31:41.513Z,51.59
2019-02-09T07:34:29.650Z,51.56
2019-02-09T07:37:17.871Z,51.60
2019-02-09T07:40:06.716Z,51.57
2019-02-09T07:42:55.058Z,51.54
2019-02-09T07:45:43.258Z,51.47
2019-02-09T07:48:31.130Z,51.26
2019-02-09T07:51:19.094Z,51.38
2019-02-09T07:54:07.003Z,51.03
2019-02-09T07:56:55.095Z,51.05
2019-02-09T07:59:43.341Z,51.02
2019-02-09T08:02:31.793Z,50.75
2019-02-09T08:05:20.211Z,50.58
2019-02-09T08:08:08.311Z,50.34
2019-02-09T08:10:56.127Z,50.21
2019-02-09T08:13:44.206Z,50.23
2019-02-09T08:16:32.349Z,50.09
2019-02-09T08:19:20.610Z,49.77
2019-02-09T08:22:08.969Z,49.60
2019-02-09T08:24:56.609Z,49.78
2019-02-09T08:27:44.435Z,50.01
2019-02-09T08:30:51.527Z,50.44
2019-02-09T08:33:39.747Z,49.95
2019-02-09T08:36:28.597Z,50.14
2019-02-09T08:39:16.534Z,50.57
2019-02-09T08:42:05.031Z,50.45
2019-02-09T08:44:52.846Z,51.09
2019-02-09T08:47:40.914Z,51.03
2019-02-09T08:50:31.510Z,50.99
2019-02-09T08:53:19.460Z,50.94
2019-02-09T08:56:07.567Z,50.60
2019-02-09T08:58:55.370Z,50.94
2019-02-09T09:01:43.237Z,50.80
2019-02-09T09:04:31.405Z,50.68
2019-02-09T09:07:19.685Z,50.25
2019-02-09T09:10:08.811Z,50.07
2019-02-09T09:12:57.069Z,50.45
2019-02-09T09:15:47.680Z,50.13
2019-02-09T09:18:35.219Z,50.34
2019-02-09T09:21:23.216Z,50.09
2019-02-09T09:24:11.260Z,49.88
2019-02-09T09:26:59.376Z,49.67
2019-02-09T09:29:47.271Z,49.77
2019-02-09T09:32:34.887Z,49.35
2019-02-09T09:35:22.826Z,49.15
2019-02-09T09:38:10.681Z,49.38
2019-02-09T09:40:58.969Z,49.59
2019-02-09T09:43:47.157Z,49.36
2019-02-09T09:46:35.205Z,49.37
2019-02-09T09:49:23.582Z,49.50
2019-02-09T09:52:11.442Z,49.21
2019-02-09T09:54:59.381Z,49.18
2019-02-09T09:57:47.934Z,48.94
2019-02-09T10:00:35.834Z,48.72
2019-02-09T10:03:23.883Z,47.79
2019-02-09T10:06:11.964Z,47.43
2019-02-09T10:08:59.628Z,48.19
2019-02-09T10:11:47.513Z,47.98
2019-02-09T10:14:35.712Z,47.50
2019-02-09T10:17:23.409Z,46.91
2019-02-09T10:20:13.599Z,47.11
2019-02-09T10:23:01.378Z,46.55
2019-02-09T10:25:49.292Z,46.77
2019-02-09T10:28:37.413Z,46.68
2019-02-09T10:31:25.238Z,46.90
2019-02-09T10:34:13.578Z,47.00
2019-02-09T10:37:01.483Z,47.20
2019-02-09T10:39:49.800Z,46.71
2019-02-09T10:42:37.848Z,45.97
2019-02-09T10:45:27.311Z,45.96
2019-02-09T10:48:15.487Z,46.26
2019-02-09T10:51:03.431Z,46.06
2019-02-09T10:53:51.603Z,45.18
2019-02-09T10:56:39.249Z,45.16
2019-02-09T10:59:27.225Z,45.30
2019-02-09T11:02:15.386Z,44.97
2019-02-09T11:05:03.228Z,44.54
2019-02-09T11:07:51.052Z,44.30
2019-02-09T11:10:38.718Z,45.71
2019-02-09T11:13:26.769Z,44.84
2019-02-09T11:16:15.331Z,44.88
2019-02-09T11:19:03.255Z,44.63
2019-02-09T11:21:51.328Z,44.74
2019-02-09T11:24:39.156Z,45.01
2019-02-09T11:27:28.167Z,44.61
2019-02-09T11:30:18.761Z,44.75
2019-02-09T11:33:06.686Z,44.63
2019-02-09T11:35:54.652Z,44.84
2019-02-09T11:38:42.510Z,44.75
2019-02-09T11:41:30.974Z,44.55
2019-02-09T11:44:18.444Z,45.15
2019-02-09T11:47:06.117Z,45.17
2019-02-09T11:49:54.271Z,45.33
2019-02-09T11:52:42.781Z,45.35
2019-02-09T11:55:30.949Z,45.04
2019-02-09T11:58:19.280Z,44.05
2019-02-09T12:01:07.157Z,43.50
2019-02-09T12:03:55.599Z,44.01
2019-02-09T12:06:43.176Z,43.61
2019-02-09T12:09:31.537Z,43.86
2019-02-09T12:12:19.636Z,43.99
2019-02-09T12:15:11.089Z,43.66
2019-02-09T12:17:59.156Z,43.65
2019-02-09T12:20:46.947Z,43.91
2019-02-09T12:23:34.958Z,44.73
2019-02-09T12:26:22.573Z,44.87
2019-02-09T12:29:10.949Z,45.00
2019-02-09T12:31:58.707Z,44.39
2019-02-09T12:34:46.632Z,44.30
2019-02-09T12:37:34.584Z,44.27
2019-02-09T12:40:25.411Z,44.56
2019-02-09T12:43:13.362Z,44.66
2019-02-09T12:46:01.341Z,44.46
2019-02-09T12:48:49.460Z,44.72
2019-02-09T12:51:37.693Z,45.09
2019-02-09T12:54:26.027Z,45.66
2019-02-09T12:57:13.716Z,46.37
2019-02-09T13:00:01.697Z,47.79
2019-02-09T13:02:49.826Z,48.71
2019-02-09T13:05:37.895Z,48.42
2019-02-09T13:08:25.699Z,48.28
2019-02-09T13:11:13.665Z,48.82
2019-02-09T13:14:01.486Z,48.72
2019-02-09T13:16:49.491Z,49.22
2019-02-09T13:19:37.005Z,48.77
2019-02-09T13:22:25.095Z,49.29
2019-02-09T13:25:12.738Z,49.23
2019-02-09T13:28:00.820Z,49.54
2019-02-09T13:30:48.662Z,50.21
2019-02-09T13:33:39.004Z,50.12
2019-02-09T13:36:25.875Z,49.64
2019-02-09T13:39:13.969Z,49.11
2019-02-09T13:42:02.071Z,49.10
2019-02-09T13:44:50.293Z,49.43
2019-02-09T13:47:38.097Z,49.50
2019-02-09T13:50:27.194Z,49.08
2019-02-09T13:53:15.961Z,48.74
2019-02-09T13:56:03.860Z,48.22
2019-02-09T13:58:51.835Z,47.67
2019-02-09T14:01:39.747Z,47.49
2019-02-09T14:04:27.329Z,48.39
2019-02-09T14:07:15.170Z,48.35
2019-02-09T14:10:03.515Z,48.60
2019-02-09T14:12:51.747Z,48.11
2019-02-09T14:15:39.884Z,47.13
2019-02-09T14:18:27.759Z,46.79
2019-02-09T14:21:15.720Z,47.57
2019-02-09T14:24:04.009Z,47.15
2019-02-09T14:26:51.942Z,47.04
2019-02-09T14:29:39.880Z,46.91
2019-02-09T14:32:28.044Z,46.91
2019-02-09T14:35:16.666Z,46.99
2019-02-09T14:38:05.306Z,46.87
2019-02-09T14:40:53.419Z,46.77
2019-02-09T14:43:41.415Z,46.98
2019-02-09T14:46:29.801Z,46.72
2019-02-09T14:49:17.681Z,47.14
2019-02-09T14:52:06.189Z,47.22
2019-02-09T14:54:53.952Z,47.37
2019-02-09T14:57:42.214Z,46.59
2019-02-09T15:00:33.214Z,46.42
2019-02-09T15:03:26.990Z,46.77
2019-02-09T15:06:10.452Z,47.46
2019-02-09T15:08:58.070Z,46.55
2019-02-09T15:11:46.210Z,46.39
2019-02-09T15:14:34.571Z,47.13
2019-02-09T15:17:22.702Z,46.88
2019-02-09T15:20:14.224Z,47.03
2019-02-09T15:23:02.055Z,46.99
2019-02-09T15:25:50.071Z,47.56
2019-02-09T15:28:38.242Z,47.73
2019-02-09T15:31:26.034Z,48.43
2019-02-09T15:34:13.839Z,47.98
2019-02-09T15:37:01.922Z,48.21
2019-02-09T15:39:49.832Z,48.71
2019-02-09T15:42:37.826Z,48.31
2019-02-09T15:45:26.173Z,48.79
2019-02-09T15:48:14.062Z,48.84
2019-02-09T15:51:02.234Z,49.02
2019-02-09T15:53:50.506Z,49.09
2019-02-09T15:56:38.013Z,49.36
2019-02-09T15:59:26.133Z,49.67
2019-02-09T16:02:14.343Z,49.27
2019-02-09T16:05:02.794Z,49.72
2019-02-09T16:07:50.649Z,49.69
2019-02-09T16:10:38.968Z,49.94
2019-02-09T16:13:26.481Z,49.68
2019-02-09T16:16:14.744Z,49.93
2019-02-09T16:19:02.731Z,50.35
2019-02-09T16:21:50.488Z,50.68
2019-02-09T16:24:38.427Z,50.78
2019-02-09T16:27:26.663Z,51.14
2019-02-09T16:30:18.679Z,50.61
2019-02-09T16:33:06.629Z,50.86
2019-02-09T16:35:54.577Z,50.94
2019-02-09T16:38:42.803Z,50.96
2019-02-09T16:41:30.854Z,51.17
2019-02-09T16:44:18.721Z,50.86
2019-02-09T16:47:06.890Z,51.09
2019-02-09T16:49:54.454Z,51.50
2019-02-09T16:52:42.813Z,51.66
2019-02-09T16:55:30.935Z,51.23
2019-02-09T16:58:18.803Z,51.01
2019-02-09T17:01:07.095Z,50.85
2019-02-09T17:03:54.724Z,50.72
2019-02-09T17:06:42.835Z,50.70
2019-02-09T17:09:30.858Z,50.90
2019-02-09T17:12:18.831Z,50.63
2019-02-09T17:15:07.330Z,50.67
2019-02-09T17:17:55.074Z,51.35
2019-02-09T17:20:42.948Z,50.77
2019-02-09T17:23:30.891Z,50.90
2019-02-09T17:26:18.401Z,50.80
2019-02-09T17:29:07.080Z,50.55
2019-02-09T17:31:54.966Z,50.66
2019-02-09T17:34:42.855Z,50.23
2019-02-09T17:37:30.708Z,50.40
2019-02-09T17:40:20.761Z,50.18
2019-02-09T17:43:09.400Z,49.96
2019-02-09T17:46:10.693Z,50.05
2019-02-09T17:48:58.612Z,49.80
2019-02-09T17:51:46.468Z,49.81
2019-02-09T17:54:34.020Z,49.86
2019-02-09T17:57:21.544Z,50.02
2019-02-09T18:00:13.368Z,49.79
2019-02-09T18:03:01.706Z,50.21
2019-02-09T18:05:49.709Z,49.36
2019-02-09T18:08:37.265Z,49.50
2019-02-09T18:11:24.663Z,49.27
2019-02-09T18:14:13.044Z,49.60
2019-02-09T18:17:01.395Z,49.42
2019-02-09T18:19:49.222Z,49.60
2019-02-09T18:22:37.203Z,49.42
2019-02-09T18:25:25.245Z,49.79
2019-02-09T18:28:13.080Z,49.61
2019-02-09T18:31:01.029Z,50.13
2019-02-09T18:33:48.858Z,50.60
2019-02-09T18:36:36.917Z,50.73
2019-02-09T18:39:25.014Z,51.00
2019-02-09T18:42:12.656Z,51.45
2019-02-09T18:45:00.249Z,51.97
2019-02-09T18:47:48.812Z,52.28
2019-02-09T18:50:36.775Z,52.81
2019-02-09T18:53:24.713Z,53.38
2019-02-09T18:56:12.846Z,53.05
2019-02-09T18:59:00.829Z,53.04
2019-02-09T19:01:48.849Z,53.13
2019-02-09T19:04:37.016Z,53.73
2019-02-09T19:07:25.358Z,53.23
2019-02-09T19:10:18.878Z,53.10
2019-02-09T19:13:07.149Z,52.58
2019-02-09T19:15:55.623Z,52.54
2019-02-09T19:18:43.709Z,52.11
2019-02-09T19:21:31.833Z,52.02
2019-02-09T19:24:19.654Z,52.72
2019-02-09T19:27:07.959Z,52.18
2019-02-09T19:29:56.241Z,51.78
2019-02-09T19:32:43.804Z,51.13
2019-02-09T19:35:31.905Z,51.46
2019-02-09T19:38:19.881Z,51.67
2019-02-09T19:41:07.595Z,51.95
2019-02-09T19:43:55.666Z,52.18
2019-02-09T19:46:43.597Z,51.77
2019-02-09T19:49:31.768Z,52.22
2019-02-09T19:52:19.538Z,52.52
2019-02-09T19:55:09.890Z,51.96
2019-02-09T19:57:58.072Z,52.31
2019-02-09T20:00:46.217Z,52.29
2019-02-09T20:03:34.067Z,52.40
2019-02-09T20:06:21.818Z,52.74
2019-02-09T20:09:10.850Z,53.00
2019-02-09T20:11:59.164Z,53.16
2019-02-09T20:14:47.627Z,53.35
2019-02-09T20:17:35.455Z,53.43
2019-02-09T20:20:23.335Z,53.35
2019-02-09T20:23:11.149Z,53.64
2019-02-09T20:25:59.318Z,53.90
2019-02-09T20:28:47.354Z,53.77
2019-02-09T20:31:35.102Z,53.78
2019-02-09T20:34:22.900Z,53.39
2019-02-09T20:37:10.682Z,53.57
2019-02-09T20:39:59.054Z,53.69
2019-02-09T20:42:46.717Z,53.70
2019-02-09T20:45:34.305Z,53.75
2019-02-09T20:48:22.335Z,53.85
2019-02-09T20:51:10.477Z,54.16
2019-02-09T20:53:58.630Z,54.66
2019-02-09T20:56:46.179Z,54.94
2019-02-09T20:59:34.462Z,55.46
2019-02-09T21:02:22.567Z,55.39
2019-02-09T21:05:10.805Z,55.98
2019-02-09T21:07:59.067Z,56.10
2019-02-09T21:10:47.202Z,56.62
2019-02-09T21:13:35.336Z,56.83
2019-02-09T21:16:23.222Z,56.87
2019-02-09T21:19:11.366Z,56.95
2019-02-09T21:21:59.383Z,57.37
2019-02-09T21:24:46.926Z,57.90
2019-02-09T21:27:34.750Z,57.83
2019-02-09T21:30:22.714Z,58.53
2019-02-09T21:33:10.884Z,58.31
2019-02-09T21:35:59.041Z,58.69
2019-02-09T21:38:47.020Z,58.78
2019-02-09T21:41:36.194Z,58.73
2019-02-09T21:44:24.475Z,58.66
2019-02-09T21:47:12.672Z,59.39
2019-02-09T21:50:00.832Z,59.13
2019-02-09T21:52:48.781Z,58.81
2019-02-09T21:55:36.789Z,59.02
2019-02-09T21:58:25.099Z,58.84
2019-02-09T22:01:13.267Z,58.89
2019-02-09T22:04:01.255Z,58.84
2019-02-09T22:06:49.089Z,58.41
2019-02-09T22:09:37.221Z,58.60
2019-02-09T22:12:25.071Z,58.38
2019-02-09T22:15:13.074Z,58.15
2019-02-09T22:18:01.006Z,58.14
2019-02-09T22:20:52.781Z,58.33
2019-02-09T22:23:38.753Z,58.75
2019-02-09T22:26:26.330Z,58.14
2019-02-09T22:29:14.022Z,57.75
2019-02-09T22:32:01.981Z,57.83
2019-02-09T22:34:50.112Z,58.09
2019-02-09T22:37:37.976Z,58.21
2019-02-09T22:40:28.149Z,58.70
2019-02-09T22:43:16.013Z,57.76
2019-02-09T22:46:04.161Z,57.78
2019-02-09T22:48:52.285Z,57.52
2019-02-09T22:51:40.048Z,57.49
2019-02-09T22:54:28.820Z,57.84
2019-02-09T22:57:16.824Z,58.37
2019-02-09T23:00:09.818Z,57.77
2019-02-09T23:02:59.247Z,58.21
2019-02-09T23:06:19.455Z,58.12
2019-02-09T23:09:09.880Z,58.37
2019-02-09T23:11:57.699Z,58.49
2019-02-09T23:14:45.602Z,58.02
2019-02-09T23:17:33.336Z,57.57
2019-02-09T23:20:21.275Z,57.74
2019-02-09T23:23:09.271Z,57.77
2019-02-09T23:25:57.082Z,57.74
2019-02-09T23:28:45.300Z,58.03
2019-02-09T23:31:33.089Z,57.70
2019-02-09T23:34:20.980Z,57.26
2019-02-09T23:37:09.057Z,57.01
2019-02-09T23:39:57.230Z,57.17
2019-02-09T23:42:45.350Z,56.93
2019-02-09T23:45:33.157Z,56.79
2019-02-09T23:48:21.045Z,57.06
2019-02-09T23:51:09.356Z,57.16
2019-02-09T23:53:57.489Z,57.75
2019-02-09T23:56:45.461Z,57.18
2019-02-09T23:59:33.328Z,57.42
